Map

Track Data

SID SEASON NUMBER BASIN SUBBASIN NAME ISO_TIME NATURE LAT LON WMO_WIND WMO_PRES WMO_AGENCY TRACK_TYPE DIST2LAND LANDFALL IFLAG USA_AGENCY USA_ATCF_ID USA_LAT USA_LON USA_RECORD USA_STATUS USA_WIND USA_PRES USA_SSHS USA_R34_NE USA_R34_SE USA_R34_SW USA_R34_NW USA_R50_NE USA_R50_SE USA_R50_SW USA_R50_NW USA_R64_NE USA_R64_SE USA_R64_SW USA_R64_NW USA_POCI USA_ROCI USA_RMW USA_EYE TOKYO_LAT TOKYO_LON TOKYO_GRADE TOKYO_WIND TOKYO_PRES TOKYO_R50_DIR TOKYO_R50_LONG TOKYO_R50_SHORT TOKYO_R30_DIR TOKYO_R30_LONG TOKYO_R30_SHORT TOKYO_LAND CMA_LAT CMA_LON CMA_CAT CMA_WIND CMA_PRES HKO_LAT HKO_LON HKO_CAT HKO_WIND HKO_PRES NEWDELHI_LAT NEWDELHI_LON NEWDELHI_GRADE NEWDELHI_WIND NEWDELHI_PRES NEWDELHI_CI NEWDELHI_DP NEWDELHI_POCI REUNION_LAT REUNION_LON REUNION_TYPE REUNION_WIND REUNION_PRES REUNION_TNUM REUNION_CI REUNION_RMW REUNION_R34_NE REUNION_R34_SE REUNION_R34_SW REUNION_R34_NW REUNION_R50_NE REUNION_R50_SE REUNION_R50_SW REUNION_R50_NW REUNION_R64_NE REUNION_R64_SE REUNION_R64_SW REUNION_R64_NW BOM_LAT BOM_LON BOM_TYPE BOM_WIND BOM_PRES BOM_TNUM BOM_CI BOM_RMW BOM_R34_NE BOM_R34_SE BOM_R34_SW BOM_R34_NW BOM_R50_NE BOM_R50_SE BOM_R50_SW BOM_R50_NW BOM_R64_NE BOM_R64_SE BOM_R64_SW BOM_R64_NW BOM_ROCI BOM_POCI BOM_EYE BOM_POS_METHOD BOM_PRES_METHOD NADI_LAT NADI_LON NADI_CAT NADI_WIND NADI_PRES WELLINGTON_LAT WELLINGTON_LON WELLINGTON_WIND WELLINGTON_PRES DS824_LAT DS824_LON DS824_STAGE DS824_WIND DS824_PRES TD9636_LAT TD9636_LON TD9636_STAGE TD9636_WIND TD9636_PRES TD9635_LAT TD9635_LON TD9635_WIND TD9635_PRES TD9635_ROCI NEUMANN_LAT NEUMANN_LON NEUMANN_CLASS NEUMANN_WIND NEUMANN_PRES MLC_LAT MLC_LON MLC_CLASS MLC_WIND MLC_PRES USA_GUST BOM_GUST BOM_GUST_PER REUNION_GUST REUNION_GUST_PER USA_SEAHGT USA_SEARAD_NE USA_SEARAD_SE USA_SEARAD_SW USA_SEARAD_NW STORM_SPEED STORM_DIR
1905069S15056 1905 10 SI MM NOT_NAMED 1905-03-10 00:00:00 TS -15.3000 56.3000 main 551 532 _________O____ -1 -15.3000 56.3000 TC 6 210
1905069S15056 1905 10 SI MM NOT_NAMED 1905-03-10 03:00:00 TS -15.5450 56.1525 main 532 506 _________P____ -1 -15.5450 56.1525 TC 6 210
1905069S15056 1905 10 SI MM NOT_NAMED 1905-03-10 06:00:00 TS -15.8000 56.0000 main 506 478 _________O____ -1 -15.8000 56.0000 TC 6 210
1905069S15056 1905 10 SI MM NOT_NAMED 1905-03-10 09:00:00 TS -16.0650 55.8425 main 482 465 _________P____ -1 -16.0650 55.8425 TC 6 210
1905069S15056 1905 10 SI MM NOT_NAMED 1905-03-10 12:00:00 TS -16.3000 55.7000 main 465 455 _________O____ -1 -16.3000 55.7000 TC 5 211
1905069S15056 1905 10 SI MM NOT_NAMED 1905-03-10 15:00:00 TS -16.4575 55.5924 main 449 444 _________P____ -1 -16.4575 55.5924 TC 4 213
1905069S15056 1905 10 SI MM NOT_NAMED 1905-03-10 18:00:00 TS -16.6000 55.5000 main 444 430 _________O____ -1 -16.6000 55.5000 TC 4 209
1905069S15056 1905 10 SI MM NOT_NAMED 1905-03-10 21:00:00 TS -16.7700 55.4074 main 430 417 _________P____ -1 -16.7700 55.4074 TC 4 205
1905069S15056 1905 10 SI MM NOT_NAMED 1905-03-11 00:00:00 TS -17.0000 55.3000 main 417 395 _________O____ -1 -17.0000 55.3000 TC 6 203
1905069S15056 1905 10 SI MM NOT_NAMED 1905-03-11 03:00:00 TS -17.3200 55.1575 main 395 370 _________P____ -1 -17.3200 55.1575 TC 8 202
1905069S15056 1905 10 SI MM NOT_NAMED 1905-03-11 06:00:00 TS -17.7000 55.0000 main 370 327 _________O____ -1 -17.7000 55.0000 TC 8 202
1905069S15056 1905 10 SI MM NOT_NAMED 1905-03-11 09:00:00 TS -18.1000 54.8351 main 328 286 _________P____ -1 -18.1000 54.8351 TC 9 200
1905069S15056 1905 10 SI MM NOT_NAMED 1905-03-11 12:00:00 TS -18.5000 54.7000 main 286 256 _________O____ -1 -18.5000 54.7000 TC 8 195
1905069S15056 1905 10 SI MM NOT_NAMED 1905-03-11 15:00:00 TS -18.8575 54.6200 main 246 214 _________P____ -1 -18.8575 54.6200 TC 7 188
1905069S15056 1905 10 SI MM NOT_NAMED 1905-03-11 18:00:00 TS -19.2000 54.6000 main 214 182 _________O____ -1 -19.2000 54.6000 TC 7 178
1905069S15056 1905 10 SI MM NOT_NAMED 1905-03-11 21:00:00 TS -19.5425 54.6349 main 182 137 _________P____ -1 -19.5425 54.6349 TC 7 172
1905069S15056 1905 10 SI MM NOT_NAMED 1905-03-12 00:00:00 TS -19.9000 54.7000 main 137 100 _________O____ -1 -19.9000 54.7000 TC 8 172
1905069S15056 1905 10 SI MM NOT_NAMED 1905-03-12 03:00:00 TS -20.2925 54.7426 main 100 61 _________P____ -1 -20.2925 54.7426 TC 8 173
1905069S15056 1905 10 SI MM NOT_NAMED 1905-03-12 06:00:00 TS -20.7000 54.8000 main 61 31 _________O____ -1 -20.7000 54.8000 TC 8 171
1905069S15056 1905 10 SI MM NOT_NAMED 1905-03-12 09:00:00 TS -21.1000 54.8776 main 31 31 _________P____ -1 -21.1000 54.8776 TC 8 167
1905069S15056 1905 10 SI MM NOT_NAMED 1905-03-12 12:00:00 TS -21.5000 55.0000 main 38 38 _________O____ -1 -21.5000 55.0000 TC 9 161
1905069S15056 1905 10 SI MM NOT_NAMED 1905-03-12 15:00:00 TS -21.9075 55.1701 main 67 67 _________P____ -1 -21.9075 55.1701 TC 9 155
1905069S15056 1905 10 SI MM NOT_NAMED 1905-03-12 18:00:00 TS -22.3000 55.4000 main 102 102 _________O____ -1 -22.3000 55.4000 TC 9 148
1905069S15056 1905 10 SI MM NOT_NAMED 1905-03-12 21:00:00 TS -22.6601 55.6847 main 145 145 _________P____ -1 -22.6601 55.6847 TC 9 142
1905069S15056 1905 10 SI MM NOT_NAMED 1905-03-13 00:00:00 TS -23.0000 56.0000 main 183 _________O____ -1 -23.0000 56.0000 TC 9 139

About IBTrACS Database

This database is a web-friendly format of International Best Track Archive for Climate Stewardship (IBTrACS), a global best track data archive curated by NOAA dating back to 1842.

Updated: 2021-12-03